Ana Sayfa
METAR-TAF:

METAR-TAF

Havaalanları :

Mae Hong Son, Tayland

Enlem: 19-18N, Boylam: 097-50E, yükseklik: 267 m

Güncel hava durumu gözlemi

Rapor saat 12:00 UTC de 14 dakika önce yapıldı.
Rüzgar güneydoğudan 5 kt
Sıcaklık 29°C
Nem 40%
Basınç 1015 hPa
Görüş mesafesi: 3000 m
2500 ft yükseklikte parçalı bulutlu
Toz Pusu

METAR: VTCH 221200Z 13005KT 3000 HZ SCT025 29/14 Q1015

Saat: 19:14 (12:14 UTC)

Tahmin

Rapor saat 11:00 UTC de 1 saat ve 14 dakika önce yapıldı.
Ayın 22'si saat 12 UTC'den ayın 23'si saat 12 UTC'ye kadar geçerli Tahmin
Rüzgar batıdan 5 kt
Görüş mesafesi: 6000 m
2500 ft yükseklikte parçalı bulutlu
Dönüşüyor
ayın 23'si saat 00 UTC'den ayın 23'si saat 02 UTC'ye kadar
Görüş mesafesi: 2500 m
Pus
Dönüşüyor
ayın 23'si saat 04 UTC'den ayın 23'si saat 06 UTC'ye kadar
Görüş mesafesi: 5000 m
Toz Pusu

TAF: VTCH 221100Z 2212/2312 28005KT 6000 SCT025 BECMG 2300/2302 2500 BR BECMG 2304/2306 5000 HZ

4.000'den fazla havaalanı için hava durumu gözlemleri ve tahminleri (METAR ve TAF raporları).

Kullanılabilir istasyonlar harita üzerinde sarı ve kırmızı noktalarla gösterilir.

İstasyonun adını görmek için fareyi noktanın üzerinde gezdirin.

Sonrasında hava gözlem ve tahminlerini görmek için tıklayın.

Haritayı değiştirmek için: yaklaştırmak için siyah artı işaretli yeşil düğmeye ve uzaklaştırmak için de eksi işaretli düğmeye hızla tıklayın; bitişik haritalar için yeşil okları kullanın.


METAR-TAF: